Time;durP1;ratioP1;P1;durP2;ratioP2;P2;SDS_P1;SDS_P2;PMS_P1;PMS_P2;Temp;Humidity;BMP_temperature;BMP_pressure;BME280_temperature;BME280_humidity;BME280_pressure;Samples;Min_cycle;Max_cycle;Signal;HPM_P1;HPM_P2
2023/04/05 00:01:32;;;;;;;7.13;4.05;;;0.10;99.90;;;-0.88;96.97;97764.19;4998050;28;20526;-39
2023/04/05 00:03:59;;;;;;;6.97;4.07;;;0.10;99.90;;;-0.98;96.67;97756.31;4991126;28;20842;-39
2023/04/05 00:06:30;;;;;;;7.63;4.30;;;0.00;99.90;;;-0.89;95.88;97763.34;4997483;28;20084;-39
2023/04/05 00:09:01;;;;;;;6.85;4.43;;;0.10;99.90;;;-0.89;95.92;97760.75;4994851;28;20030;-39
2023/04/05 00:11:33;;;;;;;9.00;4.40;;;0.10;99.90;;;-0.90;95.28;97753.81;4992931;28;20026;-39
2023/04/05 00:14:00;;;;;;;7.85;4.32;;;0.00;99.90;;;-0.88;95.84;97759.03;4993498;28;20056;-39
2023/04/05 00:16:27;;;;;;;6.88;3.95;;;0.10;99.90;;;-0.85;95.79;97757.34;4993412;28;20042;-39
2023/04/05 00:18:55;;;;;;;7.63;4.20;;;0.10;99.90;;;-0.81;96.22;97758.25;4989605;28;21660;-39
2023/04/05 00:21:22;;;;;;;8.55;4.78;;;0.10;99.90;;;-0.82;97.00;97747.03;4993326;28;20044;-39
2023/04/05 00:23:50;;;;;;;6.45;4.18;;;0.10;99.90;;;-0.80;96.92;97740.16;4987303;28;20034;-39
2023/04/05 00:26:17;;;;;;;6.70;4.28;;;0.10;99.90;;;-0.75;96.52;97741.91;4996062;28;20025;-39
2023/04/05 00:28:43;;;;;;;6.40;4.18;;;0.20;99.90;;;-0.73;95.45;97735.06;4989345;28;20037;-39
2023/04/05 00:31:09;;;;;;;9.38;4.65;;;0.20;99.90;;;-0.66;92.69;97726.53;4992019;28;20038;-39
2023/04/05 00:33:34;;;;;;;7.90;4.07;;;0.30;99.90;;;-0.82;90.90;97691.78;4987186;28;20061;-39
2023/04/05 00:36:18;;;;;;;6.22;4.10;;;0.30;99.90;;;-0.54;90.77;97725.78;5008870;28;20405;-39
2023/04/05 00:38:45;;;;;;;9.30;3.70;;;0.40;99.90;;;-0.48;89.50;97724.16;4992312;28;20034;-39
2023/04/05 00:41:12;;;;;;;7.32;3.47;;;0.40;99.90;;;-0.51;90.02;97723.25;4993777;28;20198;-38
2023/04/05 00:43:38;;;;;;;6.10;3.70;;;0.40;99.90;;;-0.56;91.65;97722.31;4990898;28;20168;-39
2023/04/05 00:46:06;;;;;;;4.50;3.60;;;0.40;99.90;;;-0.61;92.17;97715.38;4992436;28;20033;-39
2023/04/05 00:48:32;;;;;;;5.07;3.33;;;0.40;99.90;;;-0.70;93.13;97714.38;5000027;28;20021;-39
2023/04/05 00:50:59;;;;;;;6.63;3.78;;;0.30;99.90;;;-0.73;94.44;97712.63;4983834;28;20029;-39
2023/04/05 00:53:28;;;;;;;7.45;3.80;;;0.30;99.90;;;-0.74;95.30;97716.03;4988799;28;20121;-39
2023/04/05 00:55:54;;;;;;;5.70;3.60;;;0.20;99.90;;;-0.80;95.71;97705.63;4994462;28;20087;-39
2023/04/05 00:58:22;;;;;;;5.22;3.10;;;0.10;99.90;;;-0.82;95.64;97705.59;4996621;28;20116;-39
2023/04/05 01:01:12;;;;;;;6.53;3.78;;;0.10;99.90;;;-0.86;96.56;97706.41;4989817;28;20064;-39
2023/04/05 01:03:43;;;;;;;5.97;3.63;;;0.10;99.90;;;-0.91;97.38;97708.06;5000221;28;20026;-39
2023/04/05 01:06:28;;;;;;;7.10;3.90;;;0.00;99.90;;;-0.94;97.20;97699.41;5000665;28;20040;-39
2023/04/05 01:09:10;;;;;;;5.78;3.38;;;0.00;99.90;;;-0.96;97.44;97699.38;4988682;28;20730;-38
2023/04/05 01:11:39;;;;;;;6.18;3.92;;;0.00;99.90;;;-0.97;98.48;97689.84;4978126;28;20401;-39
2023/04/05 01:14:05;;;;;;;4.93;3.53;;;-0.10;99.90;;;-1.01;98.52;97693.25;4988789;28;20029;-39
2023/04/05 01:16:30;;;;;;;5.22;3.25;;;-0.10;99.90;;;-1.01;98.80;97688.94;4990070;28;20092;-39
2023/04/05 01:18:57;;;;;;;4.18;3.47;;;-0.10;99.90;;;-1.02;99.04;97694.97;4986521;28;20529;-39
2023/04/05 01:21:39;;;;;;;7.60;3.40;;;-0.10;99.90;;;-1.01;100.00;97691.53;5000610;28;20054;-39
2023/04/05 01:24:37;;;;;;;;;;;0.00;99.90;;;-1.01;100.00;97690.66;5004679;28;20030;-39
2023/04/05 01:27:50;;;;;;;7.70;3.42;;;-0.10;99.90;;;-1.01;100.00;97683.75;4989935;28;19921;-39
2023/04/05 01:31:08;;;;;;;5.60;3.80;;;-0.10;99.90;;;-1.01;100.00;97673.41;4979689;28;20067;-39
2023/04/05 01:33:43;;;;;;;7.53;3.90;;;-0.10;99.90;;;-1.01;100.00;97672.53;4970005;28;20050;-39
2023/04/05 01:36:26;;;;;;;5.55;3.40;;;-0.10;99.90;;;-1.03;100.00;97672.53;4990838;28;20307;-39
2023/04/05 01:38:54;;;;;;;5.90;4.00;;;-0.10;99.90;;;-1.04;100.00;97667.31;4983747;28;20103;-39
2023/04/05 01:41:21;;;;;;;8.77;3.72;;;-0.10;99.90;;;-1.06;100.00;97671.59;5008976;28;20391;-39
2023/04/05 01:43:47;;;;;;;6.05;3.63;;;-0.10;99.90;;;-1.08;100.00;97670.72;4999094;28;20026;-39
2023/04/05 01:46:12;;;;;;;5.85;3.80;;;-0.20;99.90;;;-1.13;100.00;97668.09;4984385;28;20044;-39
2023/04/05 01:48:38;;;;;;;5.57;3.75;;;-0.20;99.90;;;-1.18;100.00;97669.75;4985710;28;20501;-39
2023/04/05 01:51:04;;;;;;;6.15;3.85;;;-0.20;99.90;;;-1.20;100.00;97668.84;4988371;28;20030;-39
2023/04/05 01:53:30;;;;;;;6.25;3.63;;;-0.30;99.90;;;-1.22;99.50;97663.66;4988060;28;20085;-39
2023/04/05 01:56:01;;;;;;;6.22;3.78;;;-0.30;99.90;;;-1.24;99.64;97662.78;4982332;28;20026;-39
2023/04/05 01:58:28;;;;;;;7.10;3.88;;;-0.30;99.90;;;-1.26;99.87;97661.00;4984715;28;20034;-39
2023/04/05 02:00:54;;;;;;;6.22;3.95;;;-0.30;99.90;;;-1.30;100.00;97661.81;4984067;28;20490;-39
2023/04/05 02:03:24;;;;;;;6.38;3.88;;;-0.40;99.90;;;-1.32;100.00;97663.50;4992629;28;20046;-39
2023/04/05 02:05:50;;;;;;;8.30;3.80;;;-0.40;99.90;;;-1.41;100.00;97654.75;4983032;28;20408;-39
2023/04/05 02:08:17;;;;;;;7.00;3.95;;;-0.50;99.90;;;-1.43;100.00;97646.09;4986343;28;20037;-39
2023/04/05 02:10:43;;;;;;;7.57;3.78;;;-0.50;99.90;;;-1.44;100.00;97657.28;4990057;28;20482;-39
2023/04/05 02:13:09;;;;;;;7.32;3.90;;;-0.50;99.90;;;-1.47;100.00;97648.59;4993549;28;20084;-39
2023/04/05 02:15:34;;;;;;;6.95;4.00;;;-0.50;99.90;;;-1.49;100.00;97653.78;4978815;28;20046;-39
2023/04/05 02:18:03;;;;;;;6.75;3.65;;;-0.60;99.90;;;-1.50;100.00;97652.03;4985206;28;20049;-39
2023/04/05 02:20:29;;;;;;;5.82;3.70;;;-0.60;99.90;;;-1.52;100.00;97653.72;4986401;28;20034;-39
2023/04/05 02:22:57;;;;;;;7.63;3.90;;;-0.60;99.90;;;-1.78;100.00;97620.56;4988928;28;20590;-39
2023/04/05 02:25:23;;;;;;;7.10;3.75;;;-0.60;99.90;;;-1.65;100.00;97638.84;4990821;28;20750;-39
2023/04/05 02:27:48;;;;;;;5.47;3.78;;;-0.70;99.90;;;-1.62;100.00;97644.09;4976290;28;20034;-39
2023/04/05 02:30:14;;;;;;;6.13;3.88;;;-0.70;99.90;;;-1.64;100.00;97636.31;4976313;28;20038;-39
2023/04/05 02:32:44;;;;;;;8.05;4.18;;;-0.70;99.90;;;-1.63;100.00;97643.22;4998024;23;20084;-38
2023/04/05 02:35:11;;;;;;;6.07;3.63;;;-0.70;99.90;;;-1.63;100.00;97642.38;4983500;28;20037;-38
2023/04/05 02:37:37;;;;;;;5.00;3.50;;;-0.70;99.90;;;-1.61;100.00;97638.09;4986273;28;20297;-38
2023/04/05 02:40:08;;;;;;;6.32;3.95;;;-0.70;99.90;;;-1.59;100.00;97638.97;4997464;28;20057;-38
2023/04/05 02:42:35;;;;;;;6.13;3.92;;;-0.70;99.90;;;-1.61;100.00;97645.84;4987628;28;20113;-39
2023/04/05 02:45:00;;;;;;;6.07;4.18;;;-0.70;99.90;;;-1.63;100.00;97638.06;4988205;28;20486;-38
2023/04/05 02:47:26;;;;;;;5.65;3.85;;;-0.70;99.90;;;-1.61;100.00;97649.28;4985504;28;20045;-38
2023/04/05 02:49:52;;;;;;;5.88;3.78;;;-0.70;99.90;;;-1.71;100.00;97631.03;4991326;28;20042;-38
2023/04/05 02:52:18;;;;;;;7.25;4.10;;;-0.70;99.90;;;-1.75;100.00;97630.09;4982421;28;20117;-39
2023/04/05 02:54:45;;;;;;;9.00;4.25;;;-0.70;99.90;;;-1.70;100.00;97637.94;4985702;28;20108;-38
2023/04/05 02:57:12;;;;;;;7.85;4.60;;;-0.80;99.90;;;-1.75;100.00;97646.47;4987051;28;20109;-39
2023/04/05 02:59:37;;;;;;;7.95;4.07;;;-0.90;99.90;;;-1.79;100.00;97639.53;4989583;28;20699;-38
2023/04/05 03:02:05;;;;;;;6.03;4.28;;;-0.90;99.90;;;-1.83;100.00;97635.16;4986714;28;20325;-39
2023/04/05 03:04:33;;;;;;;5.28;3.78;;;-0.90;99.90;;;-1.87;100.00;97642.84;4989663;28;20069;-39
2023/04/05 03:07:01;;;;;;;7.10;4.22;;;-0.90;99.90;;;-1.96;100.00;97628.03;4989249;28;20029;-38
2023/04/05 03:09:33;;;;;;;7.07;4.05;;;-1.00;99.90;;;-1.96;100.00;97631.50;4985892;28;20025;-38
2023/04/05 03:12:00;;;;;;;6.03;4.03;;;-1.00;99.90;;;-2.01;100.00;97629.69;4984114;28;20038;-38
2023/04/05 03:14:26;;;;;;;5.80;4.05;;;-1.10;99.90;;;-2.03;100.00;97632.25;4987253;28;20041;-39
2023/04/05 03:16:52;;;;;;;8.70;4.32;;;-1.10;99.90;;;-2.07;100.00;97629.59;4987537;28;20034;-38
2023/04/05 03:19:21;;;;;;;4.97;3.58;;;-1.10;99.90;;;-2.11;100.00;97632.13;4992562;28;20124;-39
2023/04/05 03:21:49;;;;;;;5.55;3.92;;;-1.20;99.90;;;-2.14;100.00;97624.31;4991264;28;20116;-38
2023/04/05 03:24:15;;;;;;;7.68;3.97;;;-1.20;99.90;;;-2.22;100.00;97628.50;4993984;28;20576;-38
2023/04/05 03:26:48;;;;;;;6.47;4.07;;;-1.30;99.90;;;-2.21;100.00;97629.34;4994217;28;20120;-38
2023/04/05 03:29:15;;;;;;;6.50;3.88;;;-1.30;99.90;;;-2.29;100.00;97615.47;4992988;28;20042;-38
2023/04/05 03:31:40;;;;;;;7.40;4.05;;;-1.30;99.90;;;-2.32;100.00;97622.28;4995869;28;20048;-38
2023/04/05 03:34:06;;;;;;;5.93;3.60;;;-1.30;99.90;;;-2.31;100.00;97625.75;4991662;28;20433;-38
2023/04/05 03:36:41;;;;;;;5.53;3.50;;;-1.40;99.90;;;-2.32;100.00;97626.59;4989801;28;20561;-38
2023/04/05 03:39:11;;;;;;;6.35;4.20;;;-1.40;99.90;;;-2.37;100.00;97623.03;4993295;28;20044;-39
2023/04/05 03:41:40;;;;;;;6.57;3.88;;;-1.40;99.90;;;-2.41;100.00;97629.88;4983352;28;20079;-38
2023/04/05 03:44:07;;;;;;;7.70;3.72;;;-1.50;99.90;;;-2.37;100.00;97628.22;4993943;28;20092;-39
2023/04/05 03:46:33;;;;;;;6.18;4.35;;;-1.40;99.90;;;-2.53;100.00;97598.66;4991753;28;20029;-39
2023/04/05 03:49:00;;;;;;;6.35;4.20;;;-1.40;99.90;;;-2.37;100.00;97630.78;4988303;28;20525;-38
2023/04/05 03:51:26;;;;;;;7.13;4.50;;;-1.50;99.90;;;-2.39;100.00;97624.75;4993625;28;20057;-38
2023/04/05 03:53:52;;;;;;;6.85;4.40;;;-1.50;99.90;;;-2.40;100.00;97617.84;4984121;28;20062;-38
2023/04/05 03:56:18;;;;;;;11.60;4.30;;;-1.50;99.90;;;-2.45;100.00;97620.34;4984506;28;20045;-38
2023/04/05 03:58:44;;;;;;;6.88;4.65;;;-1.50;99.90;;;-2.46;100.00;97625.47;4987027;28;20313;-38
2023/04/05 04:01:11;;;;;;;8.93;4.90;;;-1.50;99.90;;;-2.50;100.00;97624.53;4990425;28;20516;-38
2023/04/05 04:03:37;;;;;;;8.50;4.40;;;-1.60;99.90;;;-2.59;100.00;97612.34;4992983;28;20224;-39
2023/04/05 04:06:04;;;;;;;7.40;4.60;;;-1.60;99.90;;;-2.51;100.00;97621.09;4984650;28;20030;-38
2023/04/05 04:08:29;;;;;;;7.28;4.93;;;-1.60;99.90;;;-2.56;100.00;97622.72;4993597;28;20437;-38
2023/04/05 04:10:55;;;;;;;6.50;4.15;;;-1.60;99.90;;;-2.57;100.00;97625.28;4987490;28;20451;-39
2023/04/05 04:13:21;;;;;;;6.88;4.43;;;-1.60;99.90;;;-2.62;100.00;97617.47;4992463;28;20041;-39
2023/04/05 04:15:47;;;;;;;8.20;4.30;;;-1.70;99.90;;;-2.61;100.00;97621.78;4989119;28;20040;-39
2023/04/05 04:18:12;;;;;;;7.05;4.55;;;-1.70;99.90;;;-2.66;100.00;97609.63;4983991;28;20045;-38
2023/04/05 04:20:38;;;;;;;9.98;4.50;;;-1.60;99.90;;;-2.62;100.00;97627.78;4986491;28;20690;-38
2023/04/05 04:23:05;;;;;;;7.43;4.60;;;-1.70;99.90;;;-2.64;100.00;97626.00;4990284;28;20754;-38
2023/04/05 04:25:31;;;;;;;6.20;4.18;;;-1.70;99.90;;;-2.72;100.00;97615.53;4991968;28;20034;-39
2023/04/05 04:27:57;;;;;;;6.43;4.50;;;-1.70;99.90;;;-2.71;100.00;97620.75;4991224;28;20948;-38
2023/04/05 04:30:24;;;;;;;6.22;4.47;;;-1.70;99.90;;;-2.70;100.00;97619.88;4988586;28;20375;-38
2023/04/05 04:32:53;;;;;;;8.27;4.85;;;-1.70;99.90;;;-2.85;100.00;97596.38;4982213;28;20522;-39
2023/04/05 04:35:32;;;;;;;7.47;4.72;;;-1.70;99.90;;;-2.77;100.00;97612.00;4986137;28;20116;-38
2023/04/05 04:38:03;;;;;;;8.40;4.93;;;-1.70;99.90;;;-2.75;100.00;97623.22;4981844;28;20025;-38
2023/04/05 04:40:45;;;;;;;10.70;4.77;;;-1.70;99.90;;;-2.78;100.00;97616.31;4991550;28;20065;-39
2023/04/05 04:43:13;;;;;;;7.38;4.90;;;-1.80;99.90;;;-2.81;100.00;97620.53;4983089;28;20052;-39
2023/04/05 04:45:40;;;;;;;8.27;4.68;;;-1.80;99.90;;;-2.76;100.00;97618.91;4961548;28;20096;-39
2023/04/05 04:48:07;;;;;;;9.15;5.28;;;-1.80;99.90;;;-2.75;100.00;97620.63;4989046;28;20034;-38
2023/04/05 04:50:33;;;;;;;9.73;5.43;;;-1.80;99.90;;;-2.79;100.00;97608.53;4996129;28;20030;-38
2023/04/05 04:53:00;;;;;;;11.35;5.15;;;-1.80;99.90;;;-2.74;100.00;97617.22;4994979;28;20041;-38
2023/04/05 04:55:27;;;;;;;10.05;5.25;;;-1.70;99.90;;;-2.73;100.00;97624.13;4985771;28;20041;-39
2023/04/05 04:57:54;;;;;;;10.43;5.97;;;-1.70;99.90;;;-2.75;100.00;97623.22;4977628;28;20489;-38
2023/04/05 05:00:21;;;;;;;13.70;5.15;;;-1.70;99.90;;;-2.77;100.00;97622.31;4982464;28;20026;-38
2023/04/05 05:02:47;;;;;;;8.13;5.07;;;-1.70;99.90;;;-2.76;100.00;97616.34;4986071;28;20034;-38
2023/04/05 05:05:13;;;;;;;8.85;5.60;;;-1.70;99.90;;;-2.70;100.00;97629.34;4984069;28;20095;-38
2023/04/05 05:07:40;;;;;;;11.70;5.63;;;-1.70;99.90;;;-2.67;100.00;97636.25;4983458;28;20031;-38
2023/04/05 05:10:08;;;;;;;11.90;6.78;;;-1.70;99.90;;;-2.64;100.00;97629.44;4981053;28;20037;-39
2023/04/05 05:12:34;;;;;;;7.45;5.13;;;-1.70;99.90;;;-2.65;100.00;97627.72;4992547;28;20033;-38
2023/04/05 05:15:00;;;;;;;8.98;5.35;;;-1.60;99.90;;;-2.60;100.00;97630.38;4983551;28;20041;-38
2023/04/05 05:17:25;;;;;;;10.27;5.55;;;-1.60;99.90;;;-2.53;100.00;97639.97;4990804;28;20034;-38
2023/04/05 05:19:51;;;;;;;10.63;5.68;;;-1.60;99.90;;;-2.64;100.00;97608.78;4991469;28;20705;-39
2023/04/05 05:22:17;;;;;;;9.95;5.95;;;-1.50;99.90;;;-2.34;100.00;97634.31;4994017;28;20034;-38
2023/04/05 05:24:44;;;;;;;8.48;5.47;;;-1.40;99.90;;;-2.28;100.00;97638.72;4988190;28;20037;-38
2023/04/05 05:27:10;;;;;;;8.65;5.78;;;-1.30;99.90;;;-2.29;100.00;97626.66;4996683;28;20116;-39
2023/04/05 05:29:35;;;;;;;8.98;5.40;;;-1.30;99.90;;;-2.21;100.00;97637.97;4995033;28;20144;-38
2023/04/05 05:32:01;;;;;;;9.43;5.55;;;-1.20;99.90;;;-2.16;100.00;97631.16;4990513;28;20064;-38
2023/04/05 05:34:27;;;;;;;7.70;5.22;;;-1.20;99.90;;;-2.13;100.00;97636.41;4997271;28;20057;-38
2023/04/05 05:36:54;;;;;;;10.43;5.50;;;-1.20;99.90;;;-2.14;100.00;97631.19;4991933;28;20271;-39
2023/04/05 05:39:20;;;;;;;9.98;5.72;;;-1.10;99.90;;;-2.04;100.00;97632.25;4995251;28;20045;-38
2023/04/05 05:41:47;;;;;;;9.20;5.45;;;-1.10;99.90;;;-2.04;100.00;97629.66;4993252;28;20034;-38
2023/04/05 05:44:13;;;;;;;8.82;5.03;;;-1.00;99.90;;;-1.98;100.00;97630.59;4999098;28;20411;-38
2023/04/05 05:46:39;;;;;;;10.32;5.20;;;-1.00;99.90;;;-1.90;100.00;97628.16;4992983;28;20479;-38
2023/04/05 05:49:05;;;;;;;10.18;5.10;;;-0.90;99.90;;;-1.83;100.00;97627.41;4995759;28;20080;-38
2023/04/05 05:51:33;;;;;;;9.75;5.70;;;-0.90;99.90;;;-1.75;100.00;97624.94;4994142;28;20306;-38
2023/04/05 05:53:58;;;;;;;9.32;6.25;;;-0.80;99.90;;;-1.72;100.00;97630.16;4994342;28;20231;-39
2023/04/05 05:56:24;;;;;;;8.63;6.15;;;-0.70;99.90;;;-1.69;100.00;97630.19;4990545;28;20037;-38
2023/04/05 05:58:50;;;;;;;9.05;5.65;;;-0.70;99.90;;;-1.58;100.00;97631.25;4995866;28;20088;-39
2023/04/05 06:01:16;;;;;;;8.65;4.97;;;-0.60;99.90;;;-1.54;100.00;97630.44;4994336;28;20462;-38
2023/04/05 06:03:41;;;;;;;10.07;5.00;;;-0.50;99.90;;;-1.45;100.00;97628.84;4994002;28;20042;-39
2023/04/05 06:06:09;;;;;;;9.82;5.15;;;-0.50;99.90;;;-1.37;100.00;97630.66;4996367;28;20095;-38
2023/04/05 06:08:39;;;;;;;10.98;5.80;;;-0.40;99.90;;;-1.28;100.00;97636.81;4993160;28;20064;-39
2023/04/05 06:11:05;;;;;;;8.60;5.55;;;-0.30;99.90;;;-1.23;100.00;97637.75;4986711;28;20056;-39
2023/04/05 06:13:31;;;;;;;9.05;5.00;;;-0.20;99.90;;;-1.14;100.00;97648.22;4995666;28;20108;-38
2023/04/05 06:15:56;;;;;;;9.80;5.30;;;-0.20;99.90;;;-1.06;100.00;97643.13;4990248;28;20087;-38
2023/04/05 06:18:22;;;;;;;10.05;5.57;;;-0.10;99.90;;;-1.00;100.00;97644.09;4989659;28;20113;-39
2023/04/05 06:20:48;;;;;;;8.10;4.78;;;0.00;99.90;;;-0.96;100.00;97632.91;4996362;28;20058;-38
2023/04/05 06:23:13;;;;;;;8.57;5.75;;;0.00;99.90;;;-0.89;100.00;97627.81;4994540;28;20109;-39
2023/04/05 06:25:39;;;;;;;9.88;5.35;;;0.10;99.90;;;-0.82;100.00;97633.09;4994660;28;20486;-39
2023/04/05 06:28:06;;;;;;;11.02;5.43;;;0.20;99.90;;;-0.70;100.00;97642.72;4988813;28;20041;-39
2023/04/05 06:30:33;;;;;;;11.45;6.00;;;0.30;99.90;;;-0.65;100.00;97641.03;4991289;28;20095;-38
2023/04/05 06:32:59;;;;;;;8.60;5.07;;;0.30;99.90;;;-0.50;100.00;97650.72;4995595;28;20030;-38
2023/04/05 06:35:25;;;;;;;9.85;5.15;;;0.40;99.90;;;-0.66;100.00;97621.19;4997524;28;20502;-39
2023/04/05 06:37:52;;;;;;;9.45;5.75;;;0.50;99.90;;;-0.40;100.00;97649.94;4999307;28;20079;-38
2023/04/05 06:40:18;;;;;;;8.85;5.85;;;0.50;99.90;;;-0.32;100.00;97643.97;4994192;28;20365;-39
2023/04/05 06:42:44;;;;;;;9.65;5.45;;;0.60;99.90;;;-0.39;100.00;97643.06;4999265;28;20030;-38
2023/04/05 06:45:11;;;;;;;11.70;5.85;;;0.60;99.90;;;-0.42;100.00;97648.19;4994135;28;20041;-39
2023/04/05 06:47:38;;;;;;;11.65;5.82;;;0.60;99.90;;;-0.40;100.00;97652.53;4994536;28;20117;-39
2023/04/05 06:50:06;;;;;;;10.88;6.30;;;0.60;99.90;;;-0.35;100.00;97643.97;4999679;28;20037;-39
2023/04/05 06:52:33;;;;;;;8.80;5.53;;;0.70;99.90;;;-0.34;100.00;97638.78;5001150;28;20148;-38
2023/04/05 06:54:59;;;;;;;9.57;5.82;;;0.70;99.90;;;-0.24;100.00;97648.38;4996836;28;20022;-39
2023/04/05 06:57:25;;;;;;;8.23;5.53;;;0.70;99.90;;;-0.14;100.00;97651.06;4998718;28;20466;-39
2023/04/05 06:59:52;;;;;;;12.68;6.15;;;0.80;99.90;;;-0.09;100.00;97654.56;4998506;28;20129;-38
2023/04/05 07:02:19;;;;;;;11.65;6.10;;;0.90;99.90;;;-0.05;100.00;97649.44;4991698;28;20030;-38
2023/04/05 07:04:45;;;;;;;9.82;5.85;;;1.00;99.90;;;0.02;99.38;97646.88;4997622;28;20145;-39
2023/04/05 07:07:11;;;;;;;10.77;6.82;;;1.00;99.90;;;0.14;96.88;97660.84;4989853;28;20317;-38
2023/04/05 07:09:38;;;;;;;14.35;6.07;;;1.10;99.90;;;0.21;96.15;97660.88;4994282;28;20642;-38
2023/04/05 07:12:06;;;;;;;11.35;6.07;;;1.10;99.90;;;0.27;97.04;97660.91;4996683;28;20218;-39
2023/04/05 07:14:36;;;;;;;11.50;5.57;;;1.20;99.90;;;0.41;96.15;97664.50;4991965;28;20052;-39
2023/04/05 07:17:05;;;;;;;13.93;6.13;;;1.30;99.90;;;0.49;94.14;97659.38;4994579;28;20037;-38
2023/04/05 07:19:30;;;;;;;11.43;5.80;;;1.40;99.90;;;0.63;93.97;97662.03;4999662;28;20026;-39
2023/04/05 07:21:57;;;;;;;10.20;6.68;;;1.50;99.90;;;0.69;94.05;97659.50;4996076;28;20540;-38
2023/04/05 07:24:23;;;;;;;12.50;6.13;;;1.60;99.90;;;0.74;92.96;97660.41;4996457;28;20061;-39
2023/04/05 07:26:49;;;;;;;13.88;6.82;;;1.70;99.90;;;0.82;92.95;97658.72;5000329;28;20064;-38
2023/04/05 07:29:14;;;;;;;13.32;6.50;;;1.80;99.90;;;0.98;91.03;97657.06;4994232;28;20040;-38
2023/04/05 07:31:40;;;;;;;9.73;5.82;;;1.90;99.90;;;1.07;90.82;97656.25;4994536;28;20029;-39
2023/04/05 07:34:06;;;;;;;9.23;5.90;;;2.00;99.90;;;1.18;90.56;97654.56;4993147;28;20037;-39
2023/04/05 07:36:32;;;;;;;10.00;6.35;;;2.10;99.90;;;1.32;86.77;97654.63;4991560;28;20037;-38
2023/04/05 07:38:58;;;;;;;7.85;5.43;;;2.20;99.90;;;1.41;86.07;97656.41;4991406;28;20053;-38
2023/04/05 07:41:25;;;;;;;9.55;5.57;;;2.30;99.90;;;1.57;86.48;97654.72;4990585;28;20823;-38
2023/04/05 07:43:51;;;;;;;7.07;4.82;;;2.40;99.90;;;1.62;82.25;97653.84;4994341;28;20452;-38
2023/04/05 07:46:16;;;;;;;7.72;4.93;;;2.60;99.90;;;1.82;75.60;97661.69;4997098;28;20034;-39
2023/04/05 07:48:42;;;;;;;8.52;4.90;;;2.70;99.90;;;1.89;71.26;97667.78;4988382;28;20034;-39
2023/04/05 07:51:09;;;;;;;7.93;4.88;;;2.80;99.90;;;1.88;66.80;97659.13;4995547;28;20384;-38
2023/04/05 07:53:36;;;;;;;8.43;4.57;;;2.80;99.90;;;1.99;68.92;97666.94;4998328;28;20033;-39
2023/04/05 07:56:06;;;;;;;7.93;4.93;;;2.80;99.90;;;2.16;70.51;97669.56;4993553;28;20022;-39
2023/04/05 07:58:33;;;;;;;10.15;5.18;;;3.00;99.90;;;2.27;68.04;97669.56;4998129;28;20206;-39
2023/04/05 08:01:03;;;;;;;9.82;5.53;;;3.10;99.90;;;2.27;63.78;97665.22;4988893;28;20029;-39
2023/04/05 08:03:30;;;;;;;8.73;4.88;;;3.20;99.90;;;2.36;64.24;97671.31;4998733;28;20101;-39
2023/04/05 08:05:57;;;;;;;8.70;5.28;;;3.20;99.90;;;2.38;63.80;97675.63;4996446;28;20056;-38
2023/04/05 08:08:24;;;;;;;7.00;4.68;;;3.20;99.90;;;2.44;63.31;97669.53;4999966;28;20052;-39
2023/04/05 08:10:49;;;;;;;8.55;4.43;;;3.30;99.90;;;2.39;62.41;97640.94;4985435;28;20034;-39
2023/04/05 08:13:15;;;;;;;9.13;5.22;;;3.40;99.90;;;2.73;62.00;97672.16;4989505;28;20312;-39
2023/04/05 08:15:41;;;;;;;9.23;4.97;;;3.50;99.90;;;2.86;59.88;97670.38;4996004;28;20033;-38
2023/04/05 08:18:07;;;;;;;9.85;5.25;;;3.70;99.90;;;2.94;59.40;97665.16;4993236;28;20394;-38
2023/04/05 08:20:37;;;;;;;7.30;4.38;;;3.80;99.90;;;3.08;59.35;97671.19;4992220;28;20025;-39
2023/04/05 08:23:04;;;;;;;9.32;4.85;;;3.80;99.90;;;3.16;57.98;97655.50;4988963;28;20549;-39
2023/04/05 08:25:30;;;;;;;9.88;4.90;;;3.90;99.90;;;3.31;57.37;97665.03;4982534;28;20299;-39
2023/04/05 08:27:56;;;;;;;6.60;4.43;;;4.10;99.90;;;3.49;55.95;97659.75;4994106;28;20038;-39
2023/04/05 08:30:22;;;;;;;8.98;4.05;;;4.20;99.90;;;3.59;54.25;97656.22;4992632;28;20095;-39
2023/04/05 08:32:48;;;;;;;7.35;3.72;;;4.30;99.90;;;3.73;53.24;97660.47;5015877;23;20046;-39
2023/04/05 08:35:15;;;;;;;9.90;4.30;;;4.40;99.90;;;3.82;51.78;97656.09;5015718;28;20044;-39
2023/04/05 08:37:40;;;;;;;6.13;3.75;;;4.50;99.80;;;3.88;49.19;97660.41;5008628;28;20040;-36
2023/04/05 08:40:07;;;;;;;7.10;3.90;;;4.60;99.00;;;3.94;49.81;97664.72;5016759;28;20029;-38
2023/04/05 08:43:12;;;;;;;8.77;4.80;;;4.70;98.40;;;3.97;51.30;97673.41;5015034;28;20030;-38
2023/04/05 08:45:48;;;;;;;9.88;5.55;;;4.70;98.70;;;4.03;51.62;97672.47;5013576;28;20037;-38
2023/04/05 08:48:15;;;;;;;8.80;5.13;;;4.80;99.30;;;3.91;51.10;97667.34;5013699;28;20037;-38
2023/04/05 08:50:41;;;;;;;10.32;5.45;;;4.70;98.80;;;3.82;50.88;97676.09;5013579;28;20120;-38
2023/04/05 08:53:09;;;;;;;9.13;4.57;;;4.70;98.40;;;3.88;51.69;97668.25;5008553;28;20126;-38
2023/04/05 08:55:36;;;;;;;10.00;5.32;;;4.60;98.80;;;4.12;51.75;97666.34;5015624;28;20021;-38
2023/04/05 08:58:10;;;;;;;6.88;4.60;;;4.80;99.10;;;4.15;50.97;97666.31;5015962;28;20017;-38
2023/04/05 09:00:36;;;;;;;7.35;4.70;;;4.90;98.60;;;4.22;50.29;97662.78;5014594;28;20025;-38
2023/04/05 09:03:03;;;;;;;5.60;3.50;;;4.90;97.90;;;4.32;50.03;97667.03;5013407;28;20040;-38
2023/04/05 09:05:30;;;;;;;7.78;3.60;;;5.10;97.80;;;4.45;49.54;97667.84;5003333;28;20493;-38
2023/04/05 09:07:57;;;;;;;7.72;4.40;;;5.10;97.60;;;4.56;50.32;97670.34;5008919;28;20095;-39
2023/04/05 09:10:24;;;;;;;6.50;3.88;;;5.30;97.40;;;4.73;48.95;97663.22;5011952;28;20026;-39
2023/04/05 09:12:51;;;;;;;5.95;3.38;;;5.40;97.00;;;4.81;45.86;97670.13;5016627;28;20098;-39
2023/04/05 09:15:20;;;;;;;5.80;3.40;;;5.50;94.90;;;4.88;44.81;97671.78;5009528;28;20037;-39
2023/04/05 09:17:47;;;;;;;6.78;3.20;;;5.60;94.00;;;4.87;44.79;97676.16;5007955;28;20030;-39
2023/04/05 09:20:12;;;;;;;6.22;3.58;;;5.60;93.40;;;4.91;46.13;97664.78;5014996;28;20022;-39
2023/04/05 09:22:46;;;;;;;6.45;3.78;;;5.60;94.00;;;4.89;45.27;97669.16;5012144;28;20037;-39
2023/04/05 09:25:30;;;;;;;7.22;4.18;;;5.60;93.70;;;5.04;45.54;97673.34;5013260;28;20045;-39
2023/04/05 09:27:57;;;;;;;7.68;4.18;;;5.70;93.90;;;5.04;45.16;97669.88;5017532;28;20387;-39
2023/04/05 09:30:26;;;;;;;5.70;3.50;;;5.70;93.50;;;5.07;44.97;97673.31;5014717;28;20038;-39
2023/04/05 09:32:54;;;;;;;7.28;3.33;;;5.80;93.10;;;5.25;44.95;97671.41;5016214;28;20052;-39
2023/04/05 09:35:28;;;;;;;7.85;4.03;;;5.80;93.50;;;5.19;44.90;97664.50;5014077;28;20041;-39
2023/04/05 09:38:00;;;;;;;6.55;3.85;;;5.90;92.70;;;5.08;43.50;97667.22;5014781;28;20439;-39
2023/04/05 09:40:52;;;;;;;6.80;3.88;;;5.80;91.80;;;5.02;44.32;97667.28;5015633;28;20052;-39
2023/04/05 09:43:38;;;;;;;5.82;4.00;;;5.80;92.00;;;5.02;45.10;97662.06;5010367;28;20083;-38
2023/04/05 09:46:03;;;;;;;5.60;3.80;;;5.70;92.50;;;5.14;45.72;97667.16;5010157;28;20046;-39
2023/04/05 09:48:48;;;;;;;7.22;3.97;;;5.80;93.10;;;5.25;46.43;97659.19;5013700;28;20029;-39
2023/04/05 09:51:16;;;;;;;7.40;4.07;;;5.90;93.60;;;5.19;43.57;97664.50;5013372;28;20037;-39
2023/04/05 09:54:01;;;;;;;5.10;3.53;;;6.00;92.00;;;5.20;43.78;97654.91;5009746;28;20152;-38
2023/04/05 09:56:30;;;;;;;6.70;3.70;;;6.00;91.10;;;5.15;43.94;97661.06;5007897;28;20033;-38
2023/04/05 09:59:09;;;;;;;6.18;3.70;;;5.90;91.60;;;5.11;44.93;97659.34;5015918;28;20025;-39
2023/04/05 10:01:35;;;;;;;6.97;3.00;;;5.90;91.60;;;5.20;44.54;97660.13;5013879;28;20103;-39
2023/04/05 10:04:02;;;;;;;6.80;3.70;;;5.90;91.80;;;5.23;42.49;97644.41;5017696;28;20035;-38
2023/04/05 10:06:41;;;;;;;5.57;3.15;;;5.90;90.60;;;5.22;43.66;97653.13;5015912;28;20033;-38
2023/04/05 10:09:09;;;;;;;4.72;2.80;;;6.00;91.40;;;5.35;42.71;97646.88;5020052;28;20048;-39
2023/04/05 10:11:38;;;;;;;6.78;3.50;;;6.00;90.40;;;5.50;43.79;97651.06;5021467;28;20555;-38
2023/04/05 10:14:07;;;;;;;4.75;3.40;;;6.10;91.20;;;5.60;43.19;97644.81;5016059;28;20044;-39
2023/04/05 10:17:03;;;;;;;7.40;3.85;;;6.30;90.70;;;5.49;41.20;97644.06;5008827;28;20078;-39
2023/04/05 10:20:09;;;;;;;6.70;3.25;;;6.30;88.20;;;5.47;43.30;97636.28;5007750;28;20844;-39
2023/04/05 10:22:51;;;;;;;8.15;3.88;;;6.20;90.40;;;5.48;44.29;97637.13;4996360;28;20119;-39
2023/04/05 10:25:56;;;;;;;6.05;3.65;;;6.20;91.40;;;5.56;43.80;97630.03;5016591;28;20025;-39
2023/04/05 10:28:32;;;;;;;7.30;3.70;;;6.20;90.60;;;5.67;42.17;97642.97;5018946;28;20068;-39